Time;durP1;ratioP1;P1;durP2;ratioP2;P2;SDS_P1;SDS_P2;PMS_P1;PMS_P2;Temp;Humidity;BMP_temperature;BMP_pressure;BME280_temperature;BME280_humidity;BME280_pressure;Samples;Min_cycle;Max_cycle;Signal;HPM_P1;HPM_P2
2023/01/16 00:00:27;;;;;;;2.72;2.00;;;4.30;99.90;;;;;;5061153;28;20415;-55
2023/01/16 00:02:52;;;;;;;2.63;2.15;;;4.40;99.90;;;;;;5042457;28;20070;-53
2023/01/16 00:05:18;;;;;;;4.20;2.42;;;4.30;99.90;;;;;;5060167;28;20392;-50
2023/01/16 00:07:43;;;;;;;4.35;2.53;;;4.40;99.90;;;;;;5059875;28;20029;-54
2023/01/16 00:10:09;;;;;;;4.20;3.35;;;4.40;99.90;;;;;;5060096;28;20100;-52
2023/01/16 00:12:35;;;;;;;3.40;2.60;;;4.40;99.90;;;;;;5061697;28;20036;-52
2023/01/16 00:15:00;;;;;;;3.72;3.08;;;4.40;99.90;;;;;;5060280;28;20029;-52
2023/01/16 00:17:26;;;;;;;6.95;3.08;;;4.40;99.90;;;;;;5059303;28;20137;-55
2023/01/16 00:19:52;;;;;;;4.57;3.40;;;4.40;99.90;;;;;;5058814;28;20048;-53
2023/01/16 00:22:17;;;;;;;3.53;2.80;;;4.40;99.90;;;;;;5060232;28;20365;-55
2023/01/16 00:24:43;;;;;;;3.28;2.80;;;4.50;99.90;;;;;;5060070;28;20032;-52
2023/01/16 00:27:08;;;;;;;4.00;2.78;;;4.40;99.90;;;;;;5041025;28;20437;-55
2023/01/16 00:29:34;;;;;;;4.40;3.25;;;4.40;99.90;;;;;;5060177;28;20441;-55
2023/01/16 00:32:00;;;;;;;6.22;3.55;;;4.50;99.90;;;;;;5059996;28;20404;-55
2023/01/16 00:34:26;;;;;;;6.88;3.95;;;4.40;99.90;;;;;;5059969;28;20072;-54
2023/01/16 00:36:51;;;;;;;6.20;3.40;;;4.40;99.90;;;;;;5039798;28;20044;-52
2023/01/16 00:39:17;;;;;;;3.42;2.88;;;4.50;99.90;;;;;;5059420;28;20062;-56
2023/01/16 00:41:42;;;;;;;7.50;3.58;;;4.50;99.90;;;;;;5059518;28;20584;-56
2023/01/16 00:44:08;;;;;;;3.97;3.55;;;4.40;99.90;;;;;;5058378;28;20032;-54
2023/01/16 00:46:33;;;;;;;4.20;3.80;;;4.50;99.90;;;;;;5058756;28;20504;-54
2023/01/16 00:48:59;;;;;;;6.32;4.10;;;4.50;99.90;;;;;;5059508;28;20123;-56
2023/01/16 00:51:24;;;;;;;8.02;5.28;;;4.50;99.90;;;;;;5058702;28;20115;-59
2023/01/16 00:53:50;;;;;;;8.50;4.93;;;4.60;99.90;;;;;;5039593;28;20107;-57
2023/01/16 00:56:15;;;;;;;4.70;4.20;;;4.50;99.90;;;;;;5058730;28;20040;-55
2023/01/16 00:58:41;;;;;;;4.40;4.00;;;4.50;99.90;;;;;;5059044;28;20488;-58
2023/01/16 01:01:07;;;;;;;5.85;4.97;;;4.50;99.90;;;;;;5058491;28;20124;-57
2023/01/16 01:03:32;;;;;;;8.02;5.57;;;4.50;99.90;;;;;;5059314;28;20029;-57
2023/01/16 01:05:58;;;;;;;7.25;5.70;;;4.50;99.90;;;;;;5058975;28;20025;-59
2023/01/16 01:08:23;;;;;;;9.90;6.03;;;4.50;99.90;;;;;;5059451;28;20387;-56
2023/01/16 01:10:49;;;;;;;8.32;5.90;;;4.60;99.90;;;;;;5059260;28;20069;-57
2023/01/16 01:13:15;;;;;;;9.50;5.72;;;4.50;99.90;;;;;;5041537;28;20051;-53
2023/01/16 01:15:40;;;;;;;6.97;6.28;;;4.50;99.90;;;;;;5058851;28;20063;-55
2023/01/16 01:18:07;;;;;;;8.27;6.05;;;4.50;99.90;;;;;;5057940;28;20032;-56
2023/01/16 01:20:32;;;;;;;9.68;5.72;;;4.60;99.90;;;;;;5058875;28;20119;-56
2023/01/16 01:22:59;;;;;;;8.93;5.50;;;4.60;99.90;;;;;;5059509;28;20212;-53
2023/01/16 01:25:24;;;;;;;6.78;6.03;;;4.50;99.90;;;;;;5039953;28;20021;-53
2023/01/16 01:27:50;;;;;;;13.27;5.05;;;4.50;99.90;;;;;;5057606;28;20052;-56
2023/01/16 01:30:16;;;;;;;8.13;5.65;;;4.60;99.90;;;;;;5058034;28;20081;-55
2023/01/16 01:32:42;;;;;;;6.40;4.90;;;4.60;99.90;;;;;;5055714;28;20028;-54
2023/01/16 01:35:08;;;;;;;6.82;5.00;;;4.60;99.90;;;;;;5039939;28;20658;-52
2023/01/16 01:37:34;;;;;;;5.72;4.72;;;4.60;99.90;;;;;;5058452;28;20416;-54
2023/01/16 01:40:01;;;;;;;8.23;4.00;;;4.60;99.90;;;;;;5058223;28;20032;-57
2023/01/16 01:42:51;;;;;;;5.00;3.65;;;4.60;99.90;;;;;;5058344;28;20676;-55
2023/01/16 01:45:26;;;;;;;3.55;3.25;;;4.60;99.90;;;;;;5039799;28;20028;-55
2023/01/16 01:48:09;;;;;;;5.00;2.80;;;4.60;99.90;;;;;;5058730;28;20556;-53
2023/01/16 01:50:34;;;;;;;4.72;2.67;;;4.60;99.90;;;;;;5058304;28;20040;-57
2023/01/16 01:53:06;;;;;;;5.45;2.60;;;4.50;99.90;;;;;;5059150;28;20089;-58
2023/01/16 01:55:32;;;;;;;2.33;2.10;;;4.60;99.90;;;;;;5057029;28;20043;-55
2023/01/16 01:58:01;;;;;;;5.05;2.53;;;4.50;99.90;;;;;;5038978;28;20028;-54
2023/01/16 02:00:27;;;;;;;2.10;1.77;;;4.60;99.90;;;;;;5055863;28;20476;-56
2023/01/16 02:03:08;;;;;;;3.35;1.90;;;4.60;99.90;;;;;;5055105;28;20035;-57
2023/01/16 02:05:38;;;;;;;5.10;2.15;;;4.60;99.90;;;;;;5056794;28;20077;-52
2023/01/16 02:08:05;;;;;;;5.53;1.80;;;4.50;99.90;;;;;;5054875;28;20029;-55
2023/01/16 02:10:43;;;;;;;7.05;2.08;;;4.60;99.90;;;;;;5058229;28;20024;-51
2023/01/16 02:13:09;;;;;;;5.15;1.90;;;4.60;99.90;;;;;;5057266;28;20020;-56
2023/01/16 02:15:36;;;;;;;2.38;2.00;;;4.50;99.90;;;;;;5057823;28;20040;-54
2023/01/16 02:21:10;;;;;;;2.35;1.77;;;4.60;99.90;;;;;;5058422;28;20039;-56
2023/01/16 02:24:30;;;;;;;3.30;2.10;;;4.60;99.90;;;;;;5057605;28;20085;-56
2023/01/16 02:27:16;;;;;;;5.38;2.17;;;4.50;99.90;;;;;;5058347;28;20031;-56
2023/01/16 02:29:42;;;;;;;;;;;4.50;99.90;;;;;;5059550;28;20040;-56
2023/01/16 02:32:32;;;;;;;5.30;2.73;;;4.50;99.90;;;;;;5057525;28;19909;-52
2023/01/16 02:35:16;;;;;;;3.10;2.90;;;4.50;99.90;;;;;;5058144;28;20028;-56
2023/01/16 02:37:48;;;;;;;3.47;3.08;;;4.50;99.90;;;;;;5058270;28;20200;-56
2023/01/16 02:40:14;;;;;;;6.43;3.17;;;4.50;99.90;;;;;;5057525;28;20029;-57
2023/01/16 02:42:50;;;;;;;4.82;2.75;;;4.50;99.90;;;;;;5057288;28;20020;-57
2023/01/16 02:45:42;;;;;;;7.70;3.20;;;4.50;99.90;;;;;;5057391;28;20028;-56
2023/01/16 02:48:24;;;;;;;3.80;2.85;;;4.40;99.90;;;;;;5057465;28;20040;-58
2023/01/16 02:51:02;;;;;;;3.15;2.40;;;4.40;99.90;;;;;;5055897;28;20044;-58
2023/01/16 02:53:41;;;;;;;3.67;2.65;;;4.40;99.90;;;;;;5040068;28;20040;-56
2023/01/16 02:56:09;;;;;;;3.33;2.47;;;4.40;99.90;;;;;;5056123;28;20027;-58
2023/01/16 02:58:41;;;;;;;4.75;2.28;;;4.40;99.90;;;;;;5039358;28;20029;-59
2023/01/16 03:01:08;;;;;;;3.85;2.60;;;4.40;99.90;;;;;;5058117;28;20046;-56
2023/01/16 03:03:36;;;;;;;5.78;2.28;;;4.40;99.90;;;;;;5040199;28;20370;-56
2023/01/16 03:06:38;;;;;;;4.45;2.05;;;4.30;99.90;;;;;;5037246;28;20404;-57
2023/01/16 03:09:42;;;;;;;2.33;2.13;;;4.30;99.90;;;;;;5054018;28;20037;-56
2023/01/16 03:12:44;;;;;;;3.08;2.17;;;4.30;99.90;;;;;;4956777;28;20541;-56
2023/01/16 03:15:17;;;;;;;5.22;1.65;;;4.20;99.90;;;;;;4956099;28;20038;-60
2023/01/16 03:18:08;;;;;;;3.83;1.92;;;4.20;99.90;;;;;;5034137;28;20059;-54
2023/01/16 03:21:00;;;;;;;4.60;1.88;;;4.10;99.90;;;;;;5057262;28;20091;-54
2023/01/16 03:23:43;;;;;;;6.72;1.95;;;4.10;99.90;;;;;;5041260;28;20032;-56
2023/01/16 03:26:22;;;;;;;2.03;1.80;;;4.10;99.90;;;;;;5060840;28;20021;-57
2023/01/16 03:29:09;;;;;;;2.20;1.77;;;4.10;99.90;;;;;;5060651;28;20035;-56
2023/01/16 03:31:48;;;;;;;3.88;1.65;;;4.10;99.90;;;;;;5061367;28;20025;-52
2023/01/16 03:34:35;;;;;;;2.13;1.30;;;4.10;99.90;;;;;;5061448;28;20028;-55
2023/01/16 03:37:17;;;;;;;2.55;1.33;;;4.10;99.90;;;;;;5060900;28;20032;-53
2023/01/16 03:39:46;;;;;;;4.63;1.75;;;4.10;99.90;;;;;;5060924;28;20024;-54
2023/01/16 03:42:23;;;;;;;3.22;1.65;;;4.10;99.90;;;;;;5060836;28;20665;-54
2023/01/16 03:44:55;;;;;;;2.58;1.33;;;4.00;99.90;;;;;;5062217;28;20045;-55
2023/01/16 03:47:30;;;;;;;4.75;1.50;;;4.10;99.90;;;;;;5060891;28;20034;-54
2023/01/16 03:50:00;;;;;;;2.60;1.25;;;4.00;99.90;;;;;;5042250;28;20040;-51
2023/01/16 03:52:33;;;;;;;4.03;1.40;;;4.10;99.90;;;;;;5060342;28;20128;-59
2023/01/16 03:55:11;;;;;;;3.13;1.40;;;4.00;99.90;;;;;;5059755;28;20029;-55
2023/01/16 03:57:49;;;;;;;1.45;1.17;;;4.00;99.90;;;;;;5089483;22;20463;-54
2023/01/16 04:00:16;;;;;;;4.03;1.40;;;4.00;99.90;;;;;;5090710;28;20032;-54
2023/01/16 04:02:57;;;;;;;2.55;1.15;;;4.00;99.90;;;;;;5091294;28;20047;-56
2023/01/16 04:05:51;;;;;;;4.60;1.55;;;4.00;99.90;;;;;;5090840;28;20016;-55
2023/01/16 04:08:22;;;;;;;3.28;1.75;;;4.00;99.90;;;;;;5085828;28;20024;-56
2023/01/16 04:10:48;;;;;;;4.15;1.25;;;4.00;99.90;;;;;;5062807;28;20024;-54
2023/01/16 04:13:18;;;;;;;4.57;1.50;;;3.90;99.90;;;;;;5063828;28;20017;-56
2023/01/16 04:15:57;;;;;;;3.25;1.33;;;3.90;99.90;;;;;;5081742;28;20027;-57
2023/01/16 04:18:28;;;;;;;4.15;1.40;;;3.90;99.90;;;;;;5080691;28;20024;-58
2023/01/16 04:20:54;;;;;;;4.43;1.67;;;3.90;99.90;;;;;;5082354;28;20017;-57
2023/01/16 04:23:20;;;;;;;2.35;1.55;;;3.80;99.90;;;;;;5082105;28;20476;-57
2023/01/16 04:25:45;;;;;;;5.13;1.45;;;3.80;99.90;;;;;;5081155;28;20424;-56
2023/01/16 04:28:11;;;;;;;6.40;1.67;;;3.80;99.90;;;;;;5081591;28;20054;-54
2023/01/16 04:30:37;;;;;;;3.50;1.55;;;3.80;99.90;;;;;;5064018;28;20373;-56
2023/01/16 04:33:04;;;;;;;3.85;1.42;;;3.90;99.90;;;;;;5063561;28;20021;-54
2023/01/16 04:35:30;;;;;;;2.10;1.60;;;3.80;99.90;;;;;;5080302;28;20063;-56
2023/01/16 04:37:56;;;;;;;3.40;1.60;;;3.80;99.90;;;;;;5082041;28;20445;-57
2023/01/16 04:40:21;;;;;;;4.20;1.40;;;3.90;99.90;;;;;;5081407;28;20059;-54
2023/01/16 04:42:47;;;;;;;1.73;1.40;;;3.80;99.90;;;;;;5082110;28;20016;-57
2023/01/16 04:45:13;;;;;;;2.63;1.63;;;3.90;99.90;;;;;;5079944;28;20023;-58
2023/01/16 04:47:39;;;;;;;1.50;1.08;;;3.90;99.90;;;;;;5082123;28;20029;-58
2023/01/16 04:50:05;;;;;;;3.63;1.23;;;3.90;99.90;;;;;;5063433;28;20098;-55
2023/01/16 04:52:31;;;;;;;4.32;1.40;;;3.90;99.90;;;;;;5062853;28;20021;-57
2023/01/16 04:54:56;;;;;;;3.78;1.33;;;3.90;99.90;;;;;;5080591;28;20384;-57
2023/01/16 04:57:22;;;;;;;1.92;1.38;;;3.90;99.90;;;;;;5080252;28;20032;-55
2023/01/16 04:59:47;;;;;;;6.47;1.73;;;3.90;99.90;;;;;;5081542;28;20071;-55
2023/01/16 05:02:13;;;;;;;3.60;1.30;;;4.00;99.90;;;;;;5080517;28;20025;-57
2023/01/16 05:04:38;;;;;;;7.75;1.67;;;4.00;99.90;;;;;;5080865;28;20434;-57
2023/01/16 05:07:04;;;;;;;3.85;1.25;;;4.00;99.90;;;;;;5080892;28;20028;-54
2023/01/16 05:09:29;;;;;;;2.88;0.80;;;4.00;99.90;;;;;;5081430;28;20025;-57
2023/01/16 05:11:55;;;;;;;4.57;1.42;;;4.00;99.90;;;;;;5080834;28;20472;-58
2023/01/16 05:14:21;;;;;;;3.92;1.35;;;4.00;99.90;;;;;;5063820;28;20025;-55
2023/01/16 05:16:46;;;;;;;5.40;1.10;;;4.10;99.90;;;;;;5081438;28;20037;-56
2023/01/16 05:19:12;;;;;;;3.83;1.02;;;4.10;99.90;;;;;;5080616;28;20058;-56
2023/01/16 05:21:38;;;;;;;1.65;1.25;;;4.10;99.90;;;;;;5063603;28;20115;-55
2023/01/16 05:24:04;;;;;;;2.17;1.13;;;4.10;99.90;;;;;;5080647;28;20024;-56
2023/01/16 05:26:29;;;;;;;1.83;1.02;;;4.10;99.90;;;;;;5062472;28;20021;-54
2023/01/16 05:28:55;;;;;;;4.57;1.52;;;4.10;99.90;;;;;;5081545;28;20089;-56
2023/01/16 05:31:20;;;;;;;2.58;1.35;;;4.10;99.90;;;;;;5079974;28;20032;-56
2023/01/16 05:33:46;;;;;;;2.42;1.02;;;4.10;99.90;;;;;;5080966;28;20028;-54
2023/01/16 05:36:12;;;;;;;3.72;1.08;;;4.10;99.90;;;;;;5080268;28;20487;-54
2023/01/16 05:38:40;;;;;;;1.30;1.05;;;4.10;99.90;;;;;;5062446;28;20028;-55
2023/01/16 05:41:06;;;;;;;5.55;1.00;;;4.20;99.90;;;;;;5062370;28;20107;-55
2023/01/16 05:43:31;;;;;;;1.95;0.98;;;4.20;99.90;;;;;;5079861;28;20115;-53
2023/01/16 05:45:57;;;;;;;1.55;0.90;;;4.20;99.90;;;;;;5079160;28;20031;-55
2023/01/16 05:48:23;;;;;;;3.88;1.02;;;4.20;99.90;;;;;;5080484;28;20090;-53
2023/01/16 05:50:49;;;;;;;2.92;1.35;;;4.20;99.90;;;;;;5061145;28;20086;-57
2023/01/16 05:53:15;;;;;;;2.85;0.70;;;4.20;99.90;;;;;;5079732;28;20052;-57
2023/01/16 05:55:46;;;;;;;2.47;0.80;;;4.20;99.90;;;;;;5061358;28;20071;-56
2023/01/16 05:58:14;;;;;;;4.63;1.80;;;4.20;99.90;;;;;;5062296;28;20035;-57
2023/01/16 06:00:41;;;;;;;3.15;1.00;;;4.20;99.90;;;;;;5079893;28;20024;-57
2023/01/16 06:03:07;;;;;;;3.63;0.93;;;4.20;99.90;;;;;;5086234;28;20085;-58
2023/01/16 06:05:33;;;;;;;1.98;0.90;;;4.20;99.90;;;;;;5078772;28;20072;-55
2023/01/16 06:07:59;;;;;;;5.47;1.17;;;4.20;99.90;;;;;;5079848;28;20059;-57
2023/01/16 06:10:26;;;;;;;2.33;1.13;;;4.20;99.90;;;;;;5079326;28;20059;-57
2023/01/16 06:12:52;;;;;;;4.00;1.10;;;4.20;99.90;;;;;;5079950;28;20054;-54
2023/01/16 06:15:18;;;;;;;1.52;1.23;;;4.20;99.90;;;;;;5079859;28;20610;-56
2023/01/16 06:17:44;;;;;;;2.95;1.25;;;4.20;99.90;;;;;;5078994;28;20441;-55
2023/01/16 06:20:10;;;;;;;2.83;1.20;;;4.20;99.90;;;;;;5078901;28;20041;-58
2023/01/16 06:22:36;;;;;;;3.70;1.33;;;4.20;99.90;;;;;;5079100;28;20032;-55
2023/01/16 06:25:01;;;;;;;4.25;1.25;;;4.20;99.90;;;;;;5077360;28;20032;-58
2023/01/16 06:27:27;;;;;;;2.63;0.80;;;4.20;99.90;;;;;;5059899;28;20024;-58
2023/01/16 06:29:53;;;;;;;1.00;0.82;;;4.20;99.90;;;;;;5079737;28;20703;-55
2023/01/16 06:32:18;;;;;;;4.10;0.80;;;4.10;99.90;;;;;;5079826;28;20103;-57
2023/01/16 06:34:44;;;;;;;1.35;1.20;;;4.10;99.90;;;;;;5078833;28;20404;-54
2023/01/16 06:37:10;;;;;;;3.42;1.10;;;4.10;99.90;;;;;;5079392;28;20107;-55
2023/01/16 06:39:36;;;;;;;2.42;0.93;;;4.10;99.90;;;;;;5079731;28;20404;-55
2023/01/16 06:42:04;;;;;;;1.48;0.77;;;4.00;99.90;;;;;;5079131;28;20047;-58
2023/01/16 06:44:33;;;;;;;1.52;0.77;;;4.10;99.90;;;;;;5060344;28;20031;-55
2023/01/16 06:47:00;;;;;;;2.65;1.10;;;4.00;99.90;;;;;;5079328;28;20550;-57
2023/01/16 06:49:26;;;;;;;2.00;0.80;;;4.00;99.90;;;;;;5078942;28;20032;-55
2023/01/16 06:51:51;;;;;;;1.58;1.02;;;4.00;99.90;;;;;;5079070;28;20028;-57
2023/01/16 06:54:17;;;;;;;2.13;0.90;;;4.00;99.90;;;;;;5079004;28;20488;-56
2023/01/16 06:56:42;;;;;;;3.85;1.85;;;4.00;99.90;;;;;;5079093;28;20158;-57
2023/01/16 06:59:08;;;;;;;1.80;1.13;;;4.00;99.90;;;;;;5078283;28;20039;-55
2023/01/16 07:01:33;;;;;;;2.97;1.42;;;4.00;99.90;;;;;;5079383;28;20033;-56
2023/01/16 07:03:59;;;;;;;3.47;1.48;;;4.00;99.90;;;;;;5079175;28;20031;-55
2023/01/16 07:06:25;;;;;;;5.07;1.33;;;4.00;99.90;;;;;;5079239;28;20028;-56
2023/01/16 07:08:50;;;;;;;4.95;1.42;;;4.00;99.90;;;;;;5079609;28;20024;-54
2023/01/16 07:11:17;;;;;;;7.22;3.60;;;4.00;99.90;;;;;;5079374;28;20074;-58
2023/01/16 07:13:43;;;;;;;4.03;1.88;;;4.00;99.90;;;;;;5079963;28;20040;-58
2023/01/16 07:24:44;;;;;;;1.17;0.70;;;4.00;99.90;;;;;;5048655;28;20089;-53
2023/01/16 07:27:10;;;;;;;2.58;0.73;;;4.00;99.90;;;;;;5078178;28;20021;-54
2023/01/16 07:29:36;;;;;;;1.20;0.82;;;4.00;99.90;;;;;;5079109;28;20028;-57
2023/01/16 07:32:03;;;;;;;2.80;0.90;;;4.00;99.90;;;;;;5060181;28;20029;-56
2023/01/16 07:34:29;;;;;;;3.55;1.13;;;4.00;99.90;;;;;;5078796;28;20586;-60
2023/01/16 07:36:55;;;;;;;2.00;1.05;;;4.00;99.90;;;;;;5077332;28;20024;-55
2023/01/16 07:39:20;;;;;;;1.90;0.63;;;4.00;99.90;;;;;;5078766;28;20491;-55
2023/01/16 07:41:48;;;;;;;2.28;0.90;;;4.00;99.90;;;;;;5078991;28;20111;-57
2023/01/16 07:44:13;;;;;;;2.60;1.13;;;3.90;99.90;;;;;;5078254;28;20450;-53
2023/01/16 07:46:39;;;;;;;3.92;1.08;;;3.90;99.90;;;;;;5078841;28;20170;-54
2023/01/16 07:49:04;;;;;;;1.65;0.90;;;3.90;99.90;;;;;;5077499;28;20100;-56
2023/01/16 07:51:30;;;;;;;2.30;0.70;;;3.80;99.90;;;;;;5078694;28;20098;-53
2023/01/16 07:53:56;;;;;;;3.20;1.20;;;3.80;99.90;;;;;;5084441;28;20124;-55
2023/01/16 07:56:21;;;;;;;2.85;1.17;;;3.80;99.90;;;;;;5078465;28;20024;-54
2023/01/16 07:58:49;;;;;;;3.33;0.85;;;3.80;99.90;;;;;;5078566;28;20039;-56
2023/01/16 08:01:14;;;;;;;0.98;0.60;;;3.70;99.90;;;;;;5077664;28;20456;-56
2023/01/16 08:03:40;;;;;;;3.45;1.40;;;3.70;99.90;;;;;;5078056;28;20024;-56
2023/01/16 08:06:06;;;;;;;3.58;0.90;;;3.80;99.90;;;;;;5077888;28;20029;-57
2023/01/16 08:08:32;;;;;;;2.78;0.70;;;3.80;99.90;;;;;;5077709;28;20103;-55
2023/01/16 08:10:59;;;;;;;6.85;1.05;;;3.80;99.90;;;;;;5082513;28;20631;-57
2023/01/16 08:13:27;;;;;;;2.83;0.77;;;3.80;99.90;;;;;;5064743;28;20024;-57
2023/01/16 08:16:06;;;;;;;3.78;0.90;;;3.80;99.90;;;;;;5081373;28;20033;-55
2023/01/16 08:18:31;;;;;;;3.25;1.20;;;3.70;99.90;;;;;;5063223;28;20066;-55
2023/01/16 08:20:57;;;;;;;3.17;1.42;;;3.80;99.90;;;;;;5064432;28;20021;-56
2023/01/16 08:23:22;;;;;;;2.08;0.70;;;3.70;99.90;;;;;;5081481;28;20506;-56
2023/01/16 08:25:49;;;;;;;5.38;1.52;;;3.70;99.90;;;;;;5064247;28;20491;-55
2023/01/16 08:28:15;;;;;;;2.85;1.20;;;3.70;99.90;;;;;;5082263;28;20024;-55
2023/01/16 08:30:40;;;;;;;5.70;0.80;;;3.70;99.90;;;;;;5082231;28;20036;-55
2023/01/16 08:33:06;;;;;;;4.65;1.23;;;3.70;99.90;;;;;;5063391;28;20020;-56
2023/01/16 08:35:31;;;;;;;2.83;1.02;;;3.60;99.90;;;;;;5081212;28;20036;-56
2023/01/16 08:37:57;;;;;;;1.60;1.10;;;3.60;99.90;;;;;;5063851;28;20051;-58
2023/01/16 08:40:22;;;;;;;1.55;0.88;;;3.60;99.90;;;;;;5063440;28;20032;-57
2023/01/16 08:51:24;;;;;;;2.15;1.27;;;3.90;99.90;;;;;;5081106;28;20043;-56
2023/01/16 08:53:54;;;;;;;1.75;0.70;;;4.00;99.90;;;;;;5080871;28;20096;-56
2023/01/16 08:56:21;;;;;;;1.70;1.30;;;4.10;99.90;;;;;;5081369;28;20381;-56
2023/01/16 08:58:47;;;;;;;3.50;0.70;;;4.10;99.90;;;;;;5080790;28;20032;-56
2023/01/16 09:01:13;;;;;;;3.33;1.08;;;4.10;99.90;;;;;;5082467;28;20024;-55
2023/01/16 09:03:38;;;;;;;2.30;0.77;;;4.10;99.90;;;;;;5081158;28;20025;-57
2023/01/16 09:06:04;;;;;;;2.10;0.95;;;4.10;99.90;;;;;;5062688;28;20021;-56
2023/01/16 09:08:30;;;;;;;2.40;0.93;;;4.10;99.90;;;;;;5063093;28;20129;-55
2023/01/16 09:13:48;;;;;;;4.53;1.02;;;4.20;99.90;;;;;;5082102;28;20031;-57
2023/01/16 09:16:15;;;;;;;3.30;1.00;;;4.20;99.90;;;;;;5081369;28;20024;-54
2023/01/16 09:18:41;;;;;;;4.55;1.30;;;4.20;99.90;;;;;;5062122;28;20507;-57
2023/01/16 09:21:06;;;;;;;1.80;1.08;;;4.30;99.90;;;;;;5079860;28;20025;-57
2023/01/16 09:23:32;;;;;;;1.70;0.80;;;4.30;99.90;;;;;;5080523;28;20174;-55
2023/01/16 09:25:57;;;;;;;3.75;1.10;;;4.30;99.90;;;;;;5062523;28;20031;-54
2023/01/16 09:28:23;;;;;;;1.73;1.00;;;4.20;99.90;;;;;;5080364;28;20030;-54
2023/01/16 09:30:50;;;;;;;3.88;1.05;;;4.20;99.90;;;;;;5062805;28;20024;-56
2023/01/16 09:33:16;;;;;;;2.25;0.57;;;4.30;99.90;;;;;;5080712;28;20103;-57
2023/01/16 09:35:42;;;;;;;2.35;1.00;;;4.20;99.90;;;;;;5080098;28;20540;-54
2023/01/16 09:38:07;;;;;;;4.03;1.20;;;4.20;99.90;;;;;;5080547;28;20020;-52
2023/01/16 09:40:33;;;;;;;2.00;1.25;;;4.20;99.90;;;;;;5080132;28;20028;-58
2023/01/16 09:45:51;;;;;;;4.90;1.38;;;4.20;99.90;;;;;;5080197;28;20031;-56
2023/01/16 09:48:29;;;;;;;5.85;1.27;;;4.20;99.90;;;;;;5080949;28;20020;-56
2023/01/16 09:51:06;;;;;;;1.27;0.82;;;4.20;99.90;;;;;;5080163;28;20021;-56
2023/01/16 09:59:45;;;;;;;3.65;1.15;;;4.20;99.90;;;;;;5075692;22;20051;-51
2023/01/16 10:02:26;;;;;;;2.53;0.93;;;4.10;99.90;;;;;;5068965;28;20060;-53
2023/01/16 10:04:54;;;;;;;1.35;0.82;;;4.20;99.90;;;;;;5065711;28;20103;-55
2023/01/16 10:07:45;;;;;;;2.17;0.85;;;4.20;99.90;;;;;;5066604;28;20512;-54
2023/01/16 10:10:32;;;;;;;2.30;1.15;;;4.10;99.90;;;;;;5046318;28;20029;-51
2023/01/16 10:13:16;;;;;;;3.30;1.05;;;4.20;99.90;;;;;;5048427;28;20041;-51
2023/01/16 10:15:41;;;;;;;2.50;0.77;;;4.20;99.90;;;;;;5048196;28;20524;-54
2023/01/16 10:18:30;;;;;;;3.95;1.08;;;4.20;99.90;;;;;;5048244;28;20104;-53
2023/01/16 10:21:30;;;;;;;3.42;1.00;;;4.30;99.90;;;;;;5048318;28;20120;-54
2023/01/16 10:24:21;;;;;;;1.52;0.82;;;4.30;99.90;;;;;;5047633;28;20571;-51
2023/01/16 10:26:57;;;;;;;1.50;0.63;;;4.30;99.90;;;;;;5031092;28;20021;-54
2023/01/16 10:29:30;;;;;;;3.25;0.93;;;4.40;99.90;;;;;;5048721;28;20021;-51
2023/01/16 10:32:26;;;;;;;1.92;0.70;;;4.40;99.90;;;;;;5047970;28;20079;-52
2023/01/16 10:35:17;;;;;;;1.33;0.80;;;4.50;99.90;;;;;;5048740;28;20043;-52
2023/01/16 10:37:45;;;;;;;2.35;0.77;;;4.60;99.90;;;;;;5048774;28;20096;-51
2023/01/16 10:40:19;;;;;;;3.08;0.82;;;4.60;99.90;;;;;;5047904;28;20393;-55
2023/01/16 10:51:08;;;;;;;2.67;0.93;;;4.90;99.90;;;;;;5048286;28;20110;-54
2023/01/16 10:53:36;;;;;;;1.80;0.90;;;4.90;99.90;;;;;;5048533;28;20481;-53
2023/01/16 10:56:03;;;;;;;2.88;1.15;;;5.00;99.90;;;;;;5028683;28;20067;-51
2023/01/16 10:58:35;;;;;;;1.63;0.80;;;5.00;99.90;;;;;;5047849;28;20497;-54
2023/01/16 11:01:14;;;;;;;1.13;0.77;;;4.90;99.90;;;;;;5047653;28;20028;-52
2023/01/16 11:04:00;;;;;;;2.15;1.00;;;5.00;99.90;;;;;;5048318;28;20013;-52
2023/01/16 11:06:30;;;;;;;1.27;0.77;;;5.00;99.90;;;;;;5047728;28;20033;-51
2023/01/16 11:09:04;;;;;;;2.38;1.00;;;5.00;99.90;;;;;;5047962;28;20021;-53
2023/01/16 11:20:21;;;;;;;2.38;0.80;;;5.10;99.90;;;;;;5047788;28;20063;-51
2023/01/16 11:23:20;;;;;;;1.98;0.73;;;5.10;99.90;;;;;;5045967;28;20025;-52
2023/01/16 11:25:48;;;;;;;2.90;0.90;;;5.20;99.90;;;;;;5046465;28;20033;-51
2023/01/16 11:28:28;;;;;;;2.92;0.93;;;5.20;99.90;;;;;;5046972;28;20025;-53
2023/01/16 11:30:58;;;;;;;3.00;1.27;;;5.20;99.90;;;;;;5047177;28;20064;-52
2023/01/16 11:33:33;;;;;;;1.33;0.88;;;5.20;99.90;;;;;;5047671;28;20028;-51
2023/01/16 11:36:01;;;;;;;1.67;1.00;;;5.20;99.90;;;;;;5047502;28;20028;-51
2023/01/16 11:38:32;;;;;;;1.27;0.75;;;5.20;99.90;;;;;;5028622;28;20504;-51
2023/01/16 11:41:00;;;;;;;1.73;1.00;;;5.20;99.90;;;;;;5046808;28;20385;-52
2023/01/16 11:46:30;;;;;;;2.47;0.80;;;5.20;99.90;;;;;;5051147;28;20086;-54
2023/01/16 11:49:13;;;;;;;3.25;0.60;;;5.20;99.90;;;;;;5051889;28;20098;-52
2023/01/16 11:51:39;;;;;;;1.98;0.77;;;5.20;99.90;;;;;;5050315;28;20108;-54
2023/01/16 11:54:12;;;;;;;2.65;1.00;;;5.20;99.90;;;;;;5051721;28;20116;-53
2023/01/16 11:57:00;;;;;;;1.15;0.55;;;5.20;99.90;;;;;;5050893;28;20090;-55
2023/01/16 11:59:26;;;;;;;3.70;1.15;;;5.20;99.90;;;;;;5051051;28;20032;-51
2023/01/16 12:02:41;;;;;;;0.90;0.80;;;5.20;99.90;;;;;;5050767;28;20036;-54
2023/01/16 12:05:57;;;;;;;1.35;1.00;;;5.20;99.90;;;;;;5007731;28;20033;-51
2023/01/16 12:08:59;;;;;;;2.17;1.08;;;5.30;99.90;;;;;;5008062;28;20029;-51
2023/01/16 12:11:51;;;;;;;3.10;1.17;;;5.30;99.90;;;;;;5050667;28;20028;-52
2023/01/16 12:14:26;;;;;;;1.05;0.70;;;5.30;99.90;;;;;;5051969;28;20108;-51
2023/01/16 12:17:04;;;;;;;2.75;0.85;;;5.30;99.90;;;;;;5050760;28;20635;-53
2023/01/16 12:20:02;;;;;;;2.20;0.95;;;5.30;99.90;;;;;;5050709;28;20125;-53
2023/01/16 12:22:46;;;;;;;5.63;0.90;;;5.30;99.90;;;;;;5050867;28;20027;-52
2023/01/16 12:25:24;;;;;;;2.53;0.82;;;5.30;99.90;;;;;;5050877;28;20028;-51
2023/01/16 12:28:05;;;;;;;1.45;0.77;;;5.30;99.90;;;;;;5049591;28;20071;-51
2023/01/16 12:30:47;;;;;;;1.58;0.82;;;5.30;99.90;;;;;;5049869;28;20092;-51
2023/01/16 12:33:31;;;;;;;1.65;0.70;;;5.40;99.90;;;;;;5049274;28;20029;-51
2023/01/16 12:36:15;;;;;;;1.80;0.82;;;5.30;99.90;;;;;;5050840;28;20029;-52
2023/01/16 12:39:00;;;;;;;1.67;0.63;;;5.40;99.90;;;;;;5050993;28;20036;-52
2023/01/16 12:44:36;;;;;;;3.10;1.00;;;5.40;99.90;;;;;;5050488;28;20075;-52
2023/01/16 12:47:02;;;;;;;2.10;0.93;;;5.40;99.90;;;;;;5049677;28;20397;-56
2023/01/16 12:49:48;;;;;;;3.25;1.00;;;5.40;99.90;;;;;;5050279;28;20028;-50
2023/01/16 12:52:31;;;;;;;4.13;1.23;;;5.40;99.90;;;;;;5049840;28;20033;-53
2023/01/16 12:55:15;;;;;;;0.82;0.50;;;5.40;99.90;;;;;;5050135;28;20074;-52
2023/01/16 12:57:59;;;;;;;1.52;0.75;;;5.40;99.90;;;;;;5050142;28;20112;-52
2023/01/16 13:00:31;;;;;;;2.22;0.98;;;5.40;99.90;;;;;;5051247;28;20032;-51
2023/01/16 13:03:12;;;;;;;3.47;1.45;;;5.40;99.90;;;;;;5049721;28;20043;-52
2023/01/16 13:05:40;;;;;;;2.75;1.15;;;5.40;99.90;;;;;;5048789;28;20033;-51
2023/01/16 13:08:20;;;;;;;0.50;0.50;;;5.40;99.90;;;;;;5048065;28;20044;-51
2023/01/16 13:13:54;;;;;;;2.08;0.90;;;5.40;99.90;;;;;;5048611;28;20031;-51
2023/01/16 13:16:45;;;;;;;2.13;1.00;;;5.40;99.90;;;;;;5049832;28;20017;-52
2023/01/16 13:19:24;;;;;;;0.85;0.82;;;5.40;99.90;;;;;;5048111;28;20512;-52
2023/01/16 13:22:02;;;;;;;2.53;1.08;;;5.40;99.90;;;;;;5031315;28;20112;-52
2023/01/16 13:24:32;;;;;;;2.42;1.23;;;5.30;99.90;;;;;;5050016;28;20021;-51
2023/01/16 13:27:02;;;;;;;0.98;0.50;;;5.30;99.90;;;;;;5048355;28;20025;-53
2023/01/16 13:29:34;;;;;;;1.95;0.70;;;5.40;99.90;;;;;;5049629;28;20021;-53
2023/01/16 13:32:22;;;;;;;2.40;0.73;;;5.30;99.90;;;;;;5048716;28;20122;-53
2023/01/16 13:34:53;;;;;;;2.47;0.70;;;5.30;99.90;;;;;;5048570;28;20037;-52
2023/01/16 13:37:37;;;;;;;0.98;0.60;;;5.30;99.90;;;;;;5049744;28;20025;-52
2023/01/16 13:40:21;;;;;;;2.80;0.52;;;5.30;99.90;;;;;;5048555;28;20108;-51
2023/01/16 13:45:47;;;;;;;3.08;0.73;;;5.30;99.90;;;;;;5049047;28;20036;-52
2023/01/16 13:45:49;;;;;;;7.38;1.00;;;5.40;99.90;;;;;;5049853;28;20560;-51
2023/01/16 13:48:21;;;;;;;1.92;0.63;;;5.30;99.90;;;;;;5049541;28;20063;-55
2023/01/16 13:51:16;;;;;;;5.53;1.20;;;5.40;99.90;;;;;;5049604;28;20040;-52
2023/01/16 13:53:49;;;;;;;2.53;0.65;;;5.30;99.90;;;;;;5048101;28;20036;-54
2023/01/16 13:56:20;;;;;;;1.95;0.65;;;5.30;99.90;;;;;;5030838;28;20078;-52
2023/01/16 13:58:53;;;;;;;1.60;0.70;;;5.30;99.90;;;;;;5047979;28;20029;-53
2023/01/16 14:01:43;;;;;;;2.60;0.80;;;5.30;99.90;;;;;;5047588;28;20029;-52
2023/01/16 14:04:24;;;;;;;3.38;0.70;;;5.30;99.90;;;;;;5048588;28;20032;-52
2023/01/16 14:10:16;;;;;;;1.63;0.70;;;5.20;99.90;;;;;;5049408;28;20032;-51
2023/01/16 14:13:00;;;;;;;1.88;0.60;;;5.20;99.90;;;;;;5048440;28;20048;-52
2023/01/16 14:18:56;;;;;;;0.70;0.70;;;5.20;99.90;;;;;;5048498;28;20036;-51
2023/01/16 14:21:25;;;;;;;2.42;0.65;;;5.10;99.90;;;;;;5048892;28;20116;-53
2023/01/16 14:24:00;;;;;;;2.17;0.63;;;5.20;99.90;;;;;;5046499;28;20040;-51
2023/01/16 14:26:50;;;;;;;3.15;0.80;;;5.10;99.90;;;;;;5048676;28;20048;-53